Weather at Cat Bi International Airport

Public forecast

Using degrees Celsius for public forecast. Weather courtesy of forecast.io.

Current aviation weather report (METAR) for Cat Bi International Airport

2024/06/24 00:30 (retrieved 34 minutes ago)

VVCI 240030Z 00000KT 9999 -RA SCT041 26/25 Q1004 NOSIG

Closest aviation forecast (TAF) to Cat Bi International Airport

Forecast is more than 6 hours old.

Closest forecast is Guangzhou Baiyun International Airport, 397.1 nm (735.4 km) ENE.

2024/06/23 18:03 (retrieved 7 hours ago)

TAF ZGGG 231505Z 2318/2418 16004MPS 8000 BKN030 TX35/2407Z TN26/2322Z TEMPO 2320/2402 TSRA SCT010 SCT026CB BKN030 TEMPO 2404/2410 TSRA SCT010 SCT026CB BKN030